sim
Sign-in with your pilot id or email,
or register
Callsign
Passwort

Schedule Details

Flight Number: DLH790 (2)
Departure: Munich Airport (EDDM) at 21:30
Arrival: Singapore Changi Airport (WSSS) at 09:20
Route: Lufthansa Passenger Schedule. Enter filed route here before submitting Pirep.

Weather Information
Getting current METAR information for EDDM 260150Z 26011KT 9999 -RA SCT014 BKN024 08/06 Q1000 NOSIG
Getting current METAR information for WSSS 260130Z 22005KT 180V250 9999 FEW014 FEW017TCU BKN160 27/23 Q1012 NOSIG

Schedule Frequency

Route Map